This is the latest recevied weather packets stored in our database for station/object DB0TBG. If no packets are shown the sender has not sent any weather packets the latest 10 day(s).
| Time | Temp. | Humidity | Pressure | Rain* | Wind** | Luminosity | Snow |
|---|---|---|---|---|---|---|---|
| 1777650150 | 20° C | 22% | 983 hPa | 0 mm | 0 m/s | - | - |
| 1777649551 | 20° C | 23% | 983 hPa | 0 mm | 0 m/s | - | - |
| 1777648952 | 20° C | 23% | 983 hPa | 0 mm | 0 m/s | - | - |
| 1777647835 | 20.56° C | 22% | 983 hPa | 0 mm | 0 m/s | - | - |
| 1777647747 | 20.56° C | 22% | 983 hPa | 0 mm | 0 m/s | - | - |
| 1777647148 | 20.56° C | 22% | 983 hPa | 0 mm | 0 m/s | - | - |
| 1777646547 | 20.56° C | 22% | 983 hPa | 0 mm | 0 m/s | - | - |
| 1777645948 | 21.11° C | 22% | 983 hPa | 0 mm | 0 m/s | - | - |
| 1777644743 | 21.11° C | 22% | 983 hPa | 0 mm | 0 m/s | - | - |
| 1777644144 | 21.11° C | 22% | 984 hPa | 0 mm | 0 m/s | - | - |
| 1777643545 | 21.11° C | 22% | 984 hPa | 0 mm | 0 m/s | - | - |
| 1777642941 | 21.11° C | 22% | 984 hPa | 0 mm | 0 m/s | - | - |
| 1777642342 | 21.11° C | 22% | 984 hPa | 0 mm | 0 m/s | - | - |
| 1777641743 | 21.11° C | 22% | 984 hPa | 0 mm | 0 m/s | - | - |
| 1777641127 | 21.67° C | 19% | 984 hPa | 0 mm | 0 m/s | - | - |
| 1777640527 | 21.11° C | 22% | 984 hPa | 0 mm | 0 m/s | - | - |
| 1777639928 | 21.67° C | 22% | 984 hPa | 0 mm | 0 m/s | - | - |
| 1777639326 | 22.22° C | 21% | 984 hPa | 0 mm | 0 m/s | - | - |
| 1777638727 | 22.22° C | 21% | 984 hPa | 0 mm | 0 m/s | - | - |
| 1777638120 | 21.67° C | 19% | 985 hPa | 0 mm | 0 m/s | - | - |
| 1777636916 | 20.56° C | 22% | 985 hPa | 0 mm | 0 m/s | - | - |
| 1777636317 | 21.11° C | 23% | 985 hPa | 0 mm | 0 m/s | - | - |
| 1777635714 | 20.56° C | 23% | 985 hPa | 0 mm | 0 m/s | - | - |
| 1777634516 | 20.56° C | 23% | 985 hPa | 0 mm | 0 m/s | - | - |
| 1777633914 | 20.56° C | 23% | 985 hPa | 0 mm | 0 m/s | - | - |
* Rain latest hour (hover to see other rain measurements)
** Current wind speed in m/s (hover to see current wind gust speed)